Friday, January 19, 2018, 7:35 AM GMT
Back to Local

CWZS, Amqui , Que.

Location: , , Canada Lat: 48.467
Local Time: 7:35 AM GMT ( 7:35 GMT) Lon: -67.433
Time Zone: GMT Elev: 544 ft

Show me the last for .
Show Coded

Time T Td Feel RH Dir Speed Gust Alt SLP Vis Weather Sky Remarks
2018-01-19 07:00 10 3 2 72 320° 5 - - 29.84 0 None
2018-01-19 06:00 11 5 2 78 340° 5 - - 29.83 0 None
2018-01-19 05:00 12 5 2 73 310° 6 - - 29.85 0 None
2018-01-19 04:00 12 6 2 75 330° 6 - - 29.84 0 None
2018-01-19 03:00 12 8 3 82 320° 6 - - 29.84 0 None
2018-01-19 02:00 12 6 - 75 350° 2 - - 29.82 0 None
2018-01-19 01:00 13 6 1 74 330° 8 - - 29.81 0 None
2018-01-19 00:00 14 8 0 77 330° 13 - - 29.80 0 Peak wind: 20 mph (18 kts) from 310° at 08 min
2018-01-18 23:00 16 10 1 76 330° 16 - - 29.77 0 Peak wind: 21 mph (19 kts) from 310° at 48 min
2018-01-18 22:00 19 15 7 84 340° 10 - - 29.76 0 None
2018-01-18 21:00 20 16 4 85 320° 14 21 - 29.73 0 Peak wind: 20 mph (18 kts) from 330° at 51 min
2018-01-18 20:00 23 15 8 69 270° 10 21 - 29.71 0 Peak wind: 21 mph (19 kts) from 270° at 42 min
2018-01-18 19:00 24 15 10 67 280° 12 18 - 29.69 0 Peak wind: 21 mph (19 kts) from 250° at 20 min
2018-01-18 17:00 23 14 14 68 220° 8 - - 29.69 0 None
2018-01-18 16:00 22 15 13 72 220° 7 - - 29.70 0 None
2018-01-18 15:00 20 14 13 76 200° 5 - - 29.72 0 None
2018-01-18 14:00 19 15 10 85 180° 6 - - 29.72 0 None
2018-01-18 13:00 18 13 10 80 200° 6 - - 29.72 0 None
2018-01-18 12:00 18 15 11 88 200° 5 - - 29.74 0 None
2018-01-18 11:00 18 13 11 82 200° 5 - - 29.75 0 None
2018-01-18 10:00 17 14 9 84 160° 6 - - 29.76 0 None
2018-01-18 09:00 17 14 9 86 140° 6 - - 29.78 0 None
2018-01-18 08:00 16 13 9 89 150° 5 - - 29.80 0 None

Support USWX by starting your Amazon purchase here.